Nearby METAR Reports

 

KCRE - North Myrtle Bea, South Carolina, USA
Distance from station: SW 11mi, 18km
Updated: 08/20/2018 12:53am
Clear
Clear
 Wind from SW
Wind: SW 12 mph , 19 km/h
Temperature: 81°F , 27°C
Heat Index: 89°F , 32°C
Dew Point: 79°F , 26°C
Humidity: 94%
Barometer: 30.01 inHg , 1016.3 hPa
Clouds: Clear
Visibility: 10 miles , 16 km
2018/08/20 04:53 KCRE 200453Z AUTO 22010KT 10SM CLR 27/26 A3001 RMK AO1 SLP163 T02720256 403000250
KCPC - Whiteville, North Carolina, USA
Distance from station: NNW 26mi, 42km
Updated: 08/20/2018 12:50am
Clear
Clear
 Wind from SSW
Wind: SSW 5 mph , 7 km/h
Temperature: 81°F , 27°C
Heat Index: 87°F , 31°C
Dew Point: 75°F , 24°C
Humidity: 84%
Barometer: 30.01 inHg , 1016.3 hPa
Clouds: Clear
Visibility: 10 miles , 16 km
2018/08/20 04:50 KCPC 200450Z AUTO 20004KT 10SM CLR 27/24 A3001 RMK AO2 T02650239
 
KMYR - Myrtle Beach, South Carolina, USA
Distance from station: SW 27mi, 43km
Updated: 08/20/2018 12:56am
Clear
Clear
 Wind from SSW
Wind: SSW 8 mph , 13 km/h
Temperature: 81°F , 27°C
Heat Index: 88°F , 31°C
Dew Point: 77°F , 25°C
Humidity: 89%
Barometer: 30.02 inHg , 1016.6 hPa
Clouds: Clear
Visibility: 10 miles , 16 km
2018/08/20 04:56 KMYR 200456Z AUTO 21007KT 10SM CLR 27/25 A3002 RMK AO2 SLP166 T02720250 403170239
KSUT - Southport, North Carolina, USA
Distance from station: E 28mi, 45km
Updated: 08/20/2018 1:00am
Partly cloudy
Partly cloudy
 Wind from SW
Wind: SW 9 mph , 15 km/h
Temperature: 81°F , 27°C
Heat Index: 88°F , 31°C
Dew Point: 77°F , 25°C
Humidity: 89%
Barometer: 30.03 inHg , 1016.9 hPa
Clouds: Partly cloudy
Visibility: 10 miles , 16 km
Cloud details: Partly cloudy 6000 ft
2018/08/20 05:00 KSUT 200500Z AUTO 22008KT 10SM SCT060 27/25 A3003 RMK AO2 T02660245
 
KHYW - Conway-Horry Cty, South Carolina, USA
Distance from station: WSW 32mi, 52km
Updated: 08/20/2018 12:55am
Clear
Clear
 Wind from SW
Wind: SW 3 mph , 6 km/h
Temperature: 77°F , 25°C
Dew Point: 77°F , 25°C
Humidity: 100%
Barometer: 30.02 inHg , 1016.6 hPa
Clouds: Clear
Visibility: 7 miles , 11 km
2018/08/20 04:55 KHYW 200455Z AUTO 22003KT 7SM CLR 25/25 A3002 RMK AO2
KILM - Wilmington, North Carolina, USA
Distance from station: ENE 45mi, 72km
Updated: 08/20/2018 12:53am
Clear
Clear
 Wind from SSW
Wind: SSW 10 mph , 17 km/h
Temperature: 81°F , 27°C
Heat Index: 86°F , 30°C
Dew Point: 73°F , 23°C
Humidity: 79%
Barometer: 30.01 inHg , 1016.3 hPa
Clouds: Clear
Visibility: 10 miles , 16 km
2018/08/20 04:53 KILM 200453Z AUTO 21009KT 10SM CLR 27/23 A3001 RMK AO2 SLP163 T02670233 403330244
 
KEYF - Elizabethtown, North Carolina, USA
Distance from station: N 47mi, 75km
Updated: 08/20/2018 12:50am
Overcast
Overcast
 Wind from S
Wind: S 6 mph , 9 km/h
Temperature: 77°F , 25°C
Dew Point: 75°F , 24°C
Humidity: 94%
Barometer: 30.01 inHg , 1016.3 hPa
Clouds: Overcast
Visibility: 10 miles , 16 km
Cloud details: Partly cloudy 3400 ft
Overcast 7000 ft
2018/08/20 04:50 KEYF 200450Z AUTO 19005KT 10SM SCT034 OVC070 25/24 A3001 RMK AO2 LTG DSNT NE T02520239
KMAO - Marion, South Carolina, USA
Distance from station: WNW 47mi, 76km
Updated: 08/20/2018 1:15am
Clear
Clear
 Wind from SSW
Wind: SSW 3 mph , 6 km/h
Temperature: 77°F , 25°C
Dew Point: 73°F , 23°C
Humidity: 89%
Barometer: 30.01 inHg , 1016.3 hPa
Clouds: Clear
Visibility: 7 miles , 11 km
2018/08/20 05:15 KMAO 200515Z AUTO 21003KT 7SM CLR 25/23 A3001 RMK AO2
 
KLBT - Lumberton, North Carolina, USA
Distance from station: NNW 55mi, 88km
Updated: 08/20/2018 12:54am
Overcast
Overcast
 Wind from S
Wind: S 6 mph , 9 km/h
Temperature: 77°F , 25°C
Dew Point: 73°F , 23°C
Humidity: 89%
Barometer: 30.00 inHg , 1015.9 hPa
Clouds: Overcast
Visibility: 10 miles , 16 km
Cloud details: Overcast 9000 ft
2018/08/20 04:54 KLBT 200454Z AUTO 19005KT 10SM OVC090 25/23 A3000 RMK AO2 SLP156 T02500233 403110228
KGGE - Georgetown, South Carolina, USA
Distance from station: SW 60mi, 97km
Updated: 08/20/2018 1:15am
Clear
Clear
 Wind from SW
Wind: SW 9 mph , 15 km/h
Temperature: 77°F , 25°C
Dew Point: 77°F , 25°C
Humidity: 100%
Barometer: 30.04 inHg , 1017.3 hPa
Clouds: Clear
Visibility: 10 miles , 16 km
2018/08/20 05:15 KGGE 200515Z AUTO 23008KT 10SM CLR 25/25 A3004 RMK AO2
 
KFLO - Florence, South Carolina, USA
Distance from station: WNW 69mi, 111km
Updated: 08/20/2018 12:53am
Clear
Clear
 Wind from SSW
Wind: SSW 7 mph , 11 km/h
Temperature: 79°F , 26°C
Dew Point: 75°F , 24°C
Humidity: 89%
Barometer: 30.01 inHg , 1016.3 hPa
Clouds: Clear
Visibility: 10 miles , 16 km
2018/08/20 04:53 KFLO 200453Z AUTO 20006KT 10SM CLR 26/24 A3001 RMK AO2 SLP158 T02610239 403280233
KCTZ - Clinton, North Carolina, USA
Distance from station: N 74mi, 119km
Updated: 08/20/2018 12:50am
Partly cloudy
Partly cloudy
 Wind from S
Wind: S 3 mph , 6 km/h
Temperature: 77°F , 25°C
Dew Point: 77°F , 25°C
Humidity: 100%
Barometer: 30.01 inHg , 1016.3 hPa
Clouds: Partly cloudy
Visibility: 10 miles , 16 km
Cloud details: Partly cloudy 800 ft
Partly cloudy 2300 ft
Partly cloudy 4600 ft
2018/08/20 04:50 KCTZ 200450Z AUTO 19003KT 10SM SCT008 SCT023 SCT046 25/25 A3001 RMK AO2 T02500248
 
KMEB - Maxton, North Carolina, USA
Distance from station: NW 75mi, 120km
Updated: 08/20/2018 12:52am
Partly cloudy
Partly cloudy
 Wind from SW
Wind: SW 6 mph , 9 km/h
Temperature: 77°F , 25°C
Dew Point: 73°F , 23°C
Humidity: 89%
Barometer: 30.01 inHg , 1016.3 hPa
Clouds: Partly cloudy
Visibility: 10 miles , 16 km
Cloud details: Partly cloudy 3800 ft
2018/08/20 04:52 KMEB 200452Z AUTO 22005KT 10SM SCT038 25/23 A3001 RMK AO2 SLP158 T02500233 403170228 TSNO
KCKI - Kingstree, South Carolina, USA
Distance from station: W 75mi, 121km
Updated: 08/20/2018 1:15am
Clear
Clear
 Wind from S
Wind: S 5 mph , 7 km/h
Temperature: 77°F , 25°C
Dew Point: 75°F , 24°C
Humidity: 94%
Barometer: 30.02 inHg , 1016.6 hPa
Clouds: Clear
Visibility: 10 miles , 16 km
2018/08/20 05:15 KCKI 200515Z AUTO 19004KT 10SM CLR 25/24 A3002 RMK AO2
 
KFAY - Fayetteville, North Carolina, USA
Distance from station: NNW 75mi, 121km
Updated: 08/20/2018 12:53am
Overcast
Overcast
 Wind from SSW
Wind: SSW 8 mph , 13 km/h
Temperature: 79°F , 26°C
Dew Point: 73°F , 23°C
Humidity: 84%
Barometer: 30.00 inHg , 1015.9 hPa
Clouds: Overcast
Visibility: 10 miles , 16 km
Cloud details: Few Clouds 5000 ft
Overcast 10000 ft
2018/08/20 04:53 KFAY 200453Z 20007KT 10SM FEW050 OVC100 26/23 A3000 RMK AO2 LTG DSNT NE AND E SLP151 T02560228 403170228
KBBP - Marlboro Cnty, South Carolina, USA
Distance from station: NW 82mi, 132km
Updated: 08/20/2018 1:15am
Clear
Clear
 Wind from calm
Wind: Calm
Temperature: 73°F , 23°C
Dew Point: 73°F , 23°C
Humidity: 100%
Barometer: 30.00 inHg , 1015.9 hPa
Clouds: Clear
Visibility: 10 miles , 16 km
2018/08/20 05:15 KBBP 200515Z AUTO 00000KT 10SM CLR 23/23 A3000 RMK AO2 LTG DSNT NE
 
KDPL - Kenansville/Dupl, North Carolina, USA
Distance from station: NNE 82mi, 132km
Updated: 08/20/2018 12:50am
Mist, Mostly cloudy
Mist, Mostly cloudy
 Wind from calm
Wind: Calm
Temperature: 75°F , 24°C
Dew Point: 75°F , 24°C
Humidity: 100%
Barometer: 30.00 inHg , 1015.9 hPa
Summary: Mist
Clouds: Mostly cloudy
Visibility: 5 miles , 8 km
Cloud details: Partly cloudy 4900 ft
Partly cloudy 5500 ft
Mostly cloudy 11000 ft
2018/08/20 04:50 KDPL 200450Z AUTO 00000KT 5SM BR SCT049 SCT055 BKN110 24/24 A3000 RMK AO2
KOAJ - Jacksonville, North Carolina, USA
Distance from station: NE 82mi, 132km
Updated: 08/20/2018 12:56am
Mostly cloudy
Mostly cloudy
 Wind from S
Wind: S 7 mph , 11 km/h
Temperature: 77°F , 25°C
Dew Point: 75°F , 24°C
Humidity: 94%
Barometer: 30.01 inHg , 1016.3 hPa
Clouds: Mostly cloudy
Visibility: 10 miles , 16 km
Cloud details: Few Clouds 7000 ft
Mostly cloudy 9500 ft
Mostly cloudy 12000 ft
2018/08/20 04:56 KOAJ 200456Z AUTO 19006KT 10SM FEW070 BKN095 BKN120 25/24 A3001 RMK AO2 LTG DSNT N-E SLP164 T02500244 403280233
 
KUDG - Darlington Cnty, South Carolina, USA
Distance from station: WNW 83mi, 134km
Updated: 08/20/2018 12:56am
Clear
Clear
 Wind from SSW
Wind: SSW 5 mph , 7 km/h
Temperature: 75°F , 24°C
Dew Point: 73°F , 23°C
Humidity: 94%
Barometer: 30.01 inHg , 1016.3 hPa
Clouds: Clear
Visibility: 10 miles , 16 km
2018/08/20 04:56 KUDG 200456Z AUTO 21004KT 10SM CLR 24/23 A3001 RMK AO2 SLP164 T02440233
KNCA - New River Mcas, North Carolina, USA
Distance from station: NE 84mi, 135km
Updated: 08/20/2018 1:07am
Partly cloudy
Partly cloudy
 Wind from SSW
Wind: SSW 5 mph , 7 km/h
Temperature: 79°F , 26°C
Dew Point: 75°F , 24°C
Humidity: 89%
Barometer: 30.01 inHg , 1016.3 hPa
Clouds: Partly cloudy
Visibility: 10 miles , 16 km
Cloud details: Partly cloudy 9500 ft
2018/08/20 05:07 KNCA 200507Z AUTO 21004KT 10SM SCT095 26/24 A3001 RMK AO2 TSE01 T02560239